sensor_id;sensor_type;location;lat;lon;timestamp;pressure;altitude;pressure_sealevel;temperature;humidity
58686;BME280;44465;53.206;-6.106;2022-11-25T00:00:05;99572.25;;;17.24;52.41
58686;BME280;44465;53.206;-6.106;2022-11-25T00:02:43;99562.72;;;17.20;52.56
58686;BME280;44465;53.206;-6.106;2022-11-25T00:05:09;99585.16;;;17.30;52.78
58686;BME280;44465;53.206;-6.106;2022-11-25T00:07:36;99636.09;;;17.55;52.81
58686;BME280;44465;53.206;-6.106;2022-11-25T00:10:08;99688.00;;;17.78;52.74
58686;BME280;44465;53.206;-6.106;2022-11-25T00:12:34;99594.56;;;17.21;52.34
58686;BME280;44465;53.206;-6.106;2022-11-25T00:15:00;99618.97;;;17.28;52.53
58686;BME280;44465;53.206;-6.106;2022-11-25T00:17:28;99620.81;;;17.28;52.49
58686;BME280;44465;53.206;-6.106;2022-11-25T00:19:57;99623.72;;;17.23;52.58
58686;BME280;44465;53.206;-6.106;2022-11-25T00:22:31;99656.56;;;17.38;52.60
58686;BME280;44465;53.206;-6.106;2022-11-25T00:25:00;99650.06;;;17.28;52.46
58686;BME280;44465;53.206;-6.106;2022-11-25T00:27:28;99631.88;;;17.20;52.44
58686;BME280;44465;53.206;-6.106;2022-11-25T00:29:57;99656.25;;;17.28;52.39
58686;BME280;44465;53.206;-6.106;2022-11-25T00:32:26;99684.13;;;17.37;52.31
58686;BME280;44465;53.206;-6.106;2022-11-25T00:34:56;99686.13;;;17.33;52.58
58686;BME280;44465;53.206;-6.106;2022-11-25T00:37:23;99698.31;;;17.38;52.70
58686;BME280;44465;53.206;-6.106;2022-11-25T00:40:01;99681.50;;;17.21;52.41
58686;BME280;44465;53.206;-6.106;2022-11-25T00:42:28;99800.00;;;17.91;52.32
58686;BME280;44465;53.206;-6.106;2022-11-25T00:45:12;99682.38;;;17.21;52.71
58686;BME280;44465;53.206;-6.106;2022-11-25T00:47:38;99757.34;;;17.60;52.93
58686;BME280;44465;53.206;-6.106;2022-11-25T00:50:04;99744.81;;;17.46;52.73
58686;BME280;44465;53.206;-6.106;2022-11-25T00:52:30;99764.59;;;17.58;52.90
58686;BME280;44465;53.206;-6.106;2022-11-25T00:55:04;99776.84;;;17.61;52.64
58686;BME280;44465;53.206;-6.106;2022-11-25T00:57:33;99755.63;;;17.43;52.63
58686;BME280;44465;53.206;-6.106;2022-11-25T00:59:59;99731.94;;;17.23;52.71
58686;BME280;44465;53.206;-6.106;2022-11-25T01:02:25;99772.47;;;17.44;52.52
58686;BME280;44465;53.206;-6.106;2022-11-25T01:04:57;99770.75;;;17.43;52.63
58686;BME280;44465;53.206;-6.106;2022-11-25T01:07:23;99757.34;;;17.28;52.77
58686;BME280;44465;53.206;-6.106;2022-11-25T01:10:07;99834.63;;;17.75;52.64
58686;BME280;44465;53.206;-6.106;2022-11-25T01:12:34;99761.84;;;17.28;52.72
58686;BME280;44465;53.206;-6.106;2022-11-25T01:15:04;99764.75;;;17.23;52.79
58686;BME280;44465;53.206;-6.106;2022-11-25T01:17:52;99887.22;;;17.87;52.87
58686;BME280;44465;53.206;-6.106;2022-11-25T01:20:19;99790.31;;;17.26;52.71
58686;BME280;44465;53.206;-6.106;2022-11-25T01:22:46;99807.66;;;17.33;52.57
58686;BME280;44465;53.206;-6.106;2022-11-25T01:25:13;99801.66;;;17.29;52.74
58686;BME280;44465;53.206;-6.106;2022-11-25T01:27:39;99808.25;;;17.22;52.75
58686;BME280;44465;53.206;-6.106;2022-11-25T01:30:09;99847.69;;;17.47;52.73
58686;BME280;44465;53.206;-6.106;2022-11-25T01:32:35;99836.00;;;17.34;52.58
58686;BME280;44465;53.206;-6.106;2022-11-25T01:35:03;99860.91;;;17.49;52.43
58686;BME280;44465;53.206;-6.106;2022-11-25T01:37:29;99851.09;;;17.33;52.61
58686;BME280;44465;53.206;-6.106;2022-11-25T01:39:55;99834.97;;;17.20;52.72
58686;BME280;44465;53.206;-6.106;2022-11-25T01:42:21;99867.91;;;17.34;52.55
58686;BME280;44465;53.206;-6.106;2022-11-25T01:45:31;99849.09;;;17.21;52.76
58686;BME280;44465;53.206;-6.106;2022-11-25T01:48:15;99870.00;;;17.29;52.79
58686;BME280;44465;53.206;-6.106;2022-11-25T01:50:55;99903.69;;;17.46;52.82
58686;BME280;44465;53.206;-6.106;2022-11-25T01:53:21;99881.31;;;17.32;52.58
58686;BME280;44465;53.206;-6.106;2022-11-25T01:55:51;99918.78;;;17.45;52.71
58686;BME280;44465;53.206;-6.106;2022-11-25T01:58:23;99874.88;;;17.20;52.36
58686;BME280;44465;53.206;-6.106;2022-11-25T02:00:53;99899.50;;;17.24;52.53
58686;BME280;44465;53.206;-6.106;2022-11-25T02:03:43;99898.56;;;17.25;52.52
58686;BME280;44465;53.206;-6.106;2022-11-25T02:06:37;99987.53;;;17.71;52.34
58686;BME280;44465;53.206;-6.106;2022-11-25T02:09:07;99941.34;;;17.38;52.67
58686;BME280;44465;53.206;-6.106;2022-11-25T02:11:36;100030.09;;;17.88;52.17
58686;BME280;44465;53.206;-6.106;2022-11-25T02:14:04;99929.56;;;17.26;52.51
58686;BME280;44465;53.206;-6.106;2022-11-25T02:16:31;99952.69;;;17.42;52.51
58686;BME280;44465;53.206;-6.106;2022-11-25T02:18:57;99931.34;;;17.26;52.71
58686;BME280;44465;53.206;-6.106;2022-11-25T02:21:40;99962.00;;;17.33;52.41
58686;BME280;44465;53.206;-6.106;2022-11-25T02:27:01;99962.44;;;17.25;52.45
58686;BME280;44465;53.206;-6.106;2022-11-25T02:29:30;100011.53;;;17.53;52.18
58686;BME280;44465;53.206;-6.106;2022-11-25T02:32:20;99985.75;;;17.38;52.73
58686;BME280;44465;53.206;-6.106;2022-11-25T02:34:48;99991.81;;;17.40;52.73
58686;BME280;44465;53.206;-6.106;2022-11-25T02:37:18;99965.25;;;17.22;52.54
58686;BME280;44465;53.206;-6.106;2022-11-25T02:39:51;100074.31;;;17.75;52.32
58686;BME280;44465;53.206;-6.106;2022-11-25T02:42:36;100101.09;;;17.89;52.63
58686;BME280;44465;53.206;-6.106;2022-11-25T02:45:03;99996.69;;;17.31;52.36
58686;BME280;44465;53.206;-6.106;2022-11-25T02:47:31;100041.59;;;17.55;52.30
58686;BME280;44465;53.206;-6.106;2022-11-25T02:49:57;100052.25;;;17.55;52.44
58686;BME280;44465;53.206;-6.106;2022-11-25T02:52:22;100061.63;;;17.62;52.29
58686;BME280;44465;53.206;-6.106;2022-11-25T02:54:51;100028.16;;;17.41;52.43
58686;BME280;44465;53.206;-6.106;2022-11-25T02:57:18;100055.72;;;17.57;52.56
58686;BME280;44465;53.206;-6.106;2022-11-25T02:59:50;100018.69;;;17.35;52.57
58686;BME280;44465;53.206;-6.106;2022-11-25T03:02:36;100029.97;;;17.40;52.57
58686;BME280;44465;53.206;-6.106;2022-11-25T03:05:03;100123.47;;;17.85;52.85
58686;BME280;44465;53.206;-6.106;2022-11-25T03:07:29;100022.69;;;17.26;52.43
58686;BME280;44465;53.206;-6.106;2022-11-25T03:10:02;100105.19;;;17.79;52.48
58686;BME280;44465;53.206;-6.106;2022-11-25T03:12:28;100032.22;;;17.30;52.36
58686;BME280;44465;53.206;-6.106;2022-11-25T03:14:59;100060.63;;;17.47;52.52
58686;BME280;44465;53.206;-6.106;2022-11-25T03:17:27;100036.38;;;17.36;52.58
58686;BME280;44465;53.206;-6.106;2022-11-25T03:19:54;100047.66;;;17.41;52.28
58686;BME280;44465;53.206;-6.106;2022-11-25T03:22:20;100082.34;;;17.57;52.16
58686;BME280;44465;53.206;-6.106;2022-11-25T03:24:47;100028.78;;;17.28;52.42
58686;BME280;44465;53.206;-6.106;2022-11-25T03:27:13;100040.22;;;17.30;52.19
58686;BME280;44465;53.206;-6.106;2022-11-25T03:29:39;100044.94;;;17.25;52.61
58686;BME280;44465;53.206;-6.106;2022-11-25T03:32:06;100107.06;;;17.59;52.47
58686;BME280;44465;53.206;-6.106;2022-11-25T03:34:32;100082.31;;;17.40;52.55
58686;BME280;44465;53.206;-6.106;2022-11-25T03:37:01;100059.16;;;17.24;52.31
58686;BME280;44465;53.206;-6.106;2022-11-25T03:39:29;100108.31;;;17.52;52.30
58686;BME280;44465;53.206;-6.106;2022-11-25T03:41:55;100124.13;;;17.55;52.47
58686;BME280;44465;53.206;-6.106;2022-11-25T03:44:26;100119.59;;;17.57;52.25
58686;BME280;44465;53.206;-6.106;2022-11-25T03:46:52;100109.72;;;17.42;52.10
58686;BME280;44465;53.206;-6.106;2022-11-25T03:49:23;100082.09;;;17.27;52.22
58686;BME280;44465;53.206;-6.106;2022-11-25T03:51:49;100115.03;;;17.42;52.46
58686;BME280;44465;53.206;-6.106;2022-11-25T03:54:16;100158.97;;;17.68;52.38
58686;BME280;44465;53.206;-6.106;2022-11-25T03:57:00;100116.22;;;17.36;52.15
58686;BME280;44465;53.206;-6.106;2022-11-25T03:59:28;100120.84;;;17.32;52.19
58686;BME280;44465;53.206;-6.106;2022-11-25T04:01:54;100137.03;;;17.45;52.15
58686;BME280;44465;53.206;-6.106;2022-11-25T04:04:21;100127.56;;;17.40;52.25
58686;BME280;44465;53.206;-6.106;2022-11-25T04:06:46;100156.09;;;17.55;52.46
58686;BME280;44465;53.206;-6.106;2022-11-25T04:09:12;100175.28;;;17.62;52.32
58686;BME280;44465;53.206;-6.106;2022-11-25T04:11:38;100185.94;;;17.62;52.53
58686;BME280;44465;53.206;-6.106;2022-11-25T04:14:47;100180.03;;;17.55;52.18
58686;BME280;44465;53.206;-6.106;2022-11-25T04:17:14;100152.78;;;17.32;52.21
58686;BME280;44465;53.206;-6.106;2022-11-25T04:19:46;100237.00;;;17.70;52.38
58686;BME280;44465;53.206;-6.106;2022-11-25T04:22:12;100205.88;;;17.53;52.42
58686;BME280;44465;53.206;-6.106;2022-11-25T04:24:44;100182.97;;;17.31;52.22
58686;BME280;44465;53.206;-6.106;2022-11-25T04:27:16;100308.34;;;18.00;52.29
58686;BME280;44465;53.206;-6.106;2022-11-25T04:29:48;100233.28;;;17.55;52.41
58686;BME280;44465;53.206;-6.106;2022-11-25T04:32:20;100250.81;;;17.59;52.19
58686;BME280;44465;53.206;-6.106;2022-11-25T04:34:46;100242.34;;;17.51;52.36
58686;BME280;44465;53.206;-6.106;2022-11-25T04:37:17;100231.16;;;17.44;52.19
58686;BME280;44465;53.206;-6.106;2022-11-25T04:39:46;100259.84;;;17.57;52.29
58686;BME280;44465;53.206;-6.106;2022-11-25T04:42:16;100337.56;;;18.02;52.24
58686;BME280;44465;53.206;-6.106;2022-11-25T04:45:11;100310.78;;;17.86;52.44
58686;BME280;44465;53.206;-6.106;2022-11-25T04:47:38;100270.72;;;17.52;52.11
58686;BME280;44465;53.206;-6.106;2022-11-25T04:50:19;100268.03;;;17.52;52.47
58686;BME280;44465;53.206;-6.106;2022-11-25T04:53:01;100299.88;;;17.73;52.54
58686;BME280;44465;53.206;-6.106;2022-11-25T04:55:27;100246.84;;;17.31;52.33
58686;BME280;44465;53.206;-6.106;2022-11-25T04:57:54;100250.31;;;17.33;52.05
58686;BME280;44465;53.206;-6.106;2022-11-25T05:00:20;100251.09;;;17.35;52.57
58686;BME280;44465;53.206;-6.106;2022-11-25T05:02:47;100284.56;;;17.41;52.20
58686;BME280;44465;53.206;-6.106;2022-11-25T05:05:17;100324.44;;;17.60;52.19
58686;BME280;44465;53.206;-6.106;2022-11-25T05:07:43;100334.81;;;17.66;52.30
58686;BME280;44465;53.206;-6.106;2022-11-25T05:10:14;100331.75;;;17.74;52.12
58686;BME280;44465;53.206;-6.106;2022-11-25T05:12:52;100351.16;;;17.78;52.08
58686;BME280;44465;53.206;-6.106;2022-11-25T05:15:28;100293.25;;;17.45;52.37
58686;BME280;44465;53.206;-6.106;2022-11-25T05:18:00;100331.44;;;17.63;52.34
58686;BME280;44465;53.206;-6.106;2022-11-25T05:20:46;100348.75;;;17.72;52.49
58686;BME280;44465;53.206;-6.106;2022-11-25T05:23:19;100303.81;;;17.46;52.62
58686;BME280;44465;53.206;-6.106;2022-11-25T05:25:48;100340.19;;;17.65;52.11
58686;BME280;44465;53.206;-6.106;2022-11-25T05:28:56;100386.38;;;17.83;52.38
58686;BME280;44465;53.206;-6.106;2022-11-25T05:31:23;100321.50;;;17.47;52.10
58686;BME280;44465;53.206;-6.106;2022-11-25T05:33:50;100332.88;;;17.51;52.49
58686;BME280;44465;53.206;-6.106;2022-11-25T05:36:47;100419.41;;;18.00;52.32
58686;BME280;44465;53.206;-6.106;2022-11-25T05:39:14;100321.38;;;17.31;52.49
58686;BME280;44465;53.206;-6.106;2022-11-25T05:42:00;100316.94;;;17.32;52.13
58686;BME280;44465;53.206;-6.106;2022-11-25T05:44:46;100366.34;;;17.57;52.26
58686;BME280;44465;53.206;-6.106;2022-11-25T05:47:12;100371.53;;;17.60;52.40
58686;BME280;44465;53.206;-6.106;2022-11-25T05:49:46;100367.47;;;17.51;52.43
58686;BME280;44465;53.206;-6.106;2022-11-25T05:52:12;100353.03;;;17.38;52.06
58686;BME280;44465;53.206;-6.106;2022-11-25T05:54:57;100368.84;;;17.41;52.36
58686;BME280;44465;53.206;-6.106;2022-11-25T05:57:24;100348.00;;;17.31;52.11
58686;BME280;44465;53.206;-6.106;2022-11-25T06:00:15;100386.34;;;17.46;52.16
58686;BME280;44465;53.206;-6.106;2022-11-25T06:02:49;100415.84;;;17.61;52.10
58686;BME280;44465;53.206;-6.106;2022-11-25T06:05:15;100415.91;;;17.59;52.30
58686;BME280;44465;53.206;-6.106;2022-11-25T06:07:41;100413.97;;;17.44;52.13
58686;BME280;44465;53.206;-6.106;2022-11-25T06:10:07;100426.13;;;17.49;52.19
58686;BME280;44465;53.206;-6.106;2022-11-25T06:12:43;100390.88;;;17.25;52.24
58686;BME280;44465;53.206;-6.106;2022-11-25T06:15:21;100440.25;;;17.51;52.17
58686;BME280;44465;53.206;-6.106;2022-11-25T06:17:49;100406.47;;;17.33;51.95
58686;BME280;44465;53.206;-6.106;2022-11-25T06:20:25;100422.09;;;17.41;52.23
58686;BME280;44465;53.206;-6.106;2022-11-25T06:22:51;100478.19;;;17.76;52.29
58686;BME280;44465;53.206;-6.106;2022-11-25T06:25:33;100417.19;;;17.31;52.14
58686;BME280;44465;53.206;-6.106;2022-11-25T06:28:03;100436.50;;;17.36;51.97
58686;BME280;44465;53.206;-6.106;2022-11-25T06:30:29;100472.13;;;17.53;52.13
58686;BME280;44465;53.206;-6.106;2022-11-25T06:36:21;100480.22;;;17.50;52.41
58686;BME280;44465;53.206;-6.106;2022-11-25T06:39:08;100453.00;;;17.24;52.39
58686;BME280;44465;53.206;-6.106;2022-11-25T06:41:34;100497.59;;;17.59;52.30
58686;BME280;44465;53.206;-6.106;2022-11-25T06:43:59;100489.03;;;17.52;52.29
58686;BME280;44465;53.206;-6.106;2022-11-25T06:46:37;100445.66;;;17.29;52.34
58686;BME280;44465;53.206;-6.106;2022-11-25T06:49:04;100454.44;;;17.31;52.05
58686;BME280;44465;53.206;-6.106;2022-11-25T06:51:30;100492.78;;;17.48;52.21
58686;BME280;44465;53.206;-6.106;2022-11-25T06:54:01;100506.72;;;17.53;52.14
58686;BME280;44465;53.206;-6.106;2022-11-25T06:56:30;100522.41;;;17.59;52.10
58686;BME280;44465;53.206;-6.106;2022-11-25T06:59:20;100593.50;;;17.98;52.10
58686;BME280;44465;53.206;-6.106;2022-11-25T07:01:46;100538.38;;;17.59;52.19
58686;BME280;44465;53.206;-6.106;2022-11-25T07:04:11;100559.94;;;17.74;52.33
58686;BME280;44465;53.206;-6.106;2022-11-25T07:06:37;100621.91;;;18.00;52.19
58686;BME280;44465;53.206;-6.106;2022-11-25T07:09:06;100512.00;;;17.34;52.28
58686;BME280;44465;53.206;-6.106;2022-11-25T07:11:35;100536.13;;;17.50;52.23
58686;BME280;44465;53.206;-6.106;2022-11-25T07:14:06;100522.44;;;17.39;52.16
58686;BME280;44465;53.206;-6.106;2022-11-25T07:16:32;100542.41;;;17.49;52.00
58686;BME280;44465;53.206;-6.106;2022-11-25T07:19:01;100521.50;;;17.40;52.21
58686;BME280;44465;53.206;-6.106;2022-11-25T07:21:33;100511.47;;;17.26;51.87
58686;BME280;44465;53.206;-6.106;2022-11-25T07:24:22;100521.50;;;17.40;51.97
58686;BME280;44465;53.206;-6.106;2022-11-25T07:26:47;100594.38;;;17.78;52.36
58686;BME280;44465;53.206;-6.106;2022-11-25T07:29:14;100568.56;;;17.60;51.94
58686;BME280;44465;53.206;-6.106;2022-11-25T07:31:43;100626.81;;;17.88;52.08
58686;BME280;44465;53.206;-6.106;2022-11-25T07:34:19;100608.41;;;17.82;52.03
58686;BME280;44465;53.206;-6.106;2022-11-25T07:36:47;100638.22;;;17.90;52.19
58686;BME280;44465;53.206;-6.106;2022-11-25T07:39:20;100628.66;;;17.86;52.11
58686;BME280;44465;53.206;-6.106;2022-11-25T07:42:07;100614.94;;;17.75;52.02
58686;BME280;44465;53.206;-6.106;2022-11-25T07:44:48;100530.06;;;17.27;51.95
58686;BME280;44465;53.206;-6.106;2022-11-25T07:47:33;100579.41;;;17.55;52.09
58686;BME280;44465;53.206;-6.106;2022-11-25T07:49:59;100589.13;;;17.56;52.25
58686;BME280;44465;53.206;-6.106;2022-11-25T07:52:25;100661.16;;;17.94;52.18
58686;BME280;44465;53.206;-6.106;2022-11-25T07:55:00;100592.06;;;17.50;52.15
58686;BME280;44465;53.206;-6.106;2022-11-25T07:57:29;100679.72;;;17.97;52.17
58686;BME280;44465;53.206;-6.106;2022-11-25T07:59:54;100684.09;;;17.98;52.15
58686;BME280;44465;53.206;-6.106;2022-11-25T08:02:20;100642.19;;;17.61;51.82
58686;BME280;44465;53.206;-6.106;2022-11-25T08:04:51;100621.28;;;17.51;51.64
58686;BME280;44465;53.206;-6.106;2022-11-25T08:07:16;100641.47;;;17.57;51.89
58686;BME280;44465;53.206;-6.106;2022-11-25T08:09:42;100678.88;;;17.75;51.98
58686;BME280;44465;53.206;-6.106;2022-11-25T08:12:09;100619.06;;;17.41;51.83
58686;BME280;44465;53.206;-6.106;2022-11-25T08:14:40;100675.41;;;17.73;51.79
58686;BME280;44465;53.206;-6.106;2022-11-25T08:17:08;100626.41;;;17.35;52.01
58686;BME280;44465;53.206;-6.106;2022-11-25T08:19:35;100742.00;;;17.93;51.97
58686;BME280;44465;53.206;-6.106;2022-11-25T08:22:01;100681.94;;;17.65;52.00
58686;BME280;44465;53.206;-6.106;2022-11-25T08:24:26;100706.44;;;17.74;51.91
58686;BME280;44465;53.206;-6.106;2022-11-25T08:26:52;100665.75;;;17.49;52.08
58686;BME280;44465;53.206;-6.106;2022-11-25T08:29:19;100693.72;;;17.60;51.90
58686;BME280;44465;53.206;-6.106;2022-11-25T08:31:45;100704.44;;;17.58;51.89
58686;BME280;44465;53.206;-6.106;2022-11-25T08:34:31;100682.91;;;17.42;52.03
58686;BME280;44465;53.206;-6.106;2022-11-25T08:37:01;100687.13;;;17.48;51.93
58686;BME280;44465;53.206;-6.106;2022-11-25T08:39:26;100744.47;;;17.77;51.92
58686;BME280;44465;53.206;-6.106;2022-11-25T08:41:52;100683.78;;;17.43;51.96
58686;BME280;44465;53.206;-6.106;2022-11-25T08:44:18;100739.44;;;17.70;51.73
58686;BME280;44465;53.206;-6.106;2022-11-25T08:46:44;100689.09;;;17.43;52.05
58686;BME280;44465;53.206;-6.106;2022-11-25T08:49:10;100684.09;;;17.35;51.98
58686;BME280;44465;53.206;-6.106;2022-11-25T08:51:37;100731.31;;;17.52;52.20
58686;BME280;44465;53.206;-6.106;2022-11-25T08:54:06;100732.13;;;17.54;52.10
58686;BME280;44465;53.206;-6.106;2022-11-25T08:56:32;100742.06;;;17.49;52.17
58686;BME280;44465;53.206;-6.106;2022-11-25T08:59:06;100688.31;;;17.18;51.85
58686;BME280;44465;53.206;-6.106;2022-11-25T09:01:32;100751.69;;;17.53;51.99
58686;BME280;44465;53.206;-6.106;2022-11-25T09:04:04;100754.00;;;17.40;51.80
58686;BME280;44465;53.206;-6.106;2022-11-25T09:06:30;100798.84;;;17.72;51.80
58686;BME280;44465;53.206;-6.106;2022-11-25T09:08:56;100779.28;;;17.73;51.74
58686;BME280;44465;53.206;-6.106;2022-11-25T09:11:26;100745.94;;;17.42;52.07
58686;BME280;44465;53.206;-6.106;2022-11-25T09:13:57;100739.13;;;17.34;51.90
58686;BME280;44465;53.206;-6.106;2022-11-25T09:16:28;100859.97;;;17.98;52.14
58686;BME280;44465;53.206;-6.106;2022-11-25T09:18:54;100759.34;;;17.39;51.97
58686;BME280;44465;53.206;-6.106;2022-11-25T09:21:24;100829.47;;;17.83;52.17
58686;BME280;44465;53.206;-6.106;2022-11-25T09:23:53;100769.69;;;17.46;52.02
58686;BME280;44465;53.206;-6.106;2022-11-25T09:26:28;100770.44;;;17.50;52.19
58686;BME280;44465;53.206;-6.106;2022-11-25T09:28:55;100793.25;;;17.57;52.20
58686;BME280;44465;53.206;-6.106;2022-11-25T09:31:25;100775.13;;;17.43;52.05
58686;BME280;44465;53.206;-6.106;2022-11-25T09:33:55;100776.94;;;17.43;52.05
58686;BME280;44465;53.206;-6.106;2022-11-25T09:36:20;100868.88;;;17.97;52.11
58686;BME280;44465;53.206;-6.106;2022-11-25T09:38:51;100841.97;;;17.81;52.14
58686;BME280;44465;53.206;-6.106;2022-11-25T09:53:08;100819.28;;;17.49;52.07
58686;BME280;44465;53.206;-6.106;2022-11-25T09:55:43;100874.69;;;17.85;52.00
58686;BME280;44465;53.206;-6.106;2022-11-25T10:00:50;100919.66;;;17.93;52.20
58686;BME280;44465;53.206;-6.106;2022-11-25T10:06:50;100871.94;;;17.64;52.29
58686;BME280;44465;53.206;-6.106;2022-11-25T10:09:25;100819.97;;;17.32;52.22
58686;BME280;44465;53.206;-6.106;2022-11-25T10:12:18;100871.22;;;17.61;52.28
58686;BME280;44465;53.206;-6.106;2022-11-25T10:17:50;100929.88;;;17.81;52.28
58686;BME280;44465;53.206;-6.106;2022-11-25T10:23:01;100878.00;;;17.46;52.26
58686;BME280;44465;53.206;-6.106;2022-11-25T10:25:52;100897.31;;;17.51;52.06
58686;BME280;44465;53.206;-6.106;2022-11-25T10:28:37;100887.09;;;17.40;52.36
58686;BME280;44465;53.206;-6.106;2022-11-25T10:31:18;100934.66;;;17.73;52.27
58686;BME280;44465;53.206;-6.106;2022-11-25T10:33:49;100942.22;;;17.84;52.29
58686;BME280;44465;53.206;-6.106;2022-11-25T10:36:38;100935.50;;;17.74;51.99
58686;BME280;44465;53.206;-6.106;2022-11-25T10:39:28;100966.13;;;17.86;52.26
58686;BME280;44465;53.206;-6.106;2022-11-25T10:42:04;101010.78;;;18.03;52.37
58686;BME280;44465;53.206;-6.106;2022-11-25T10:44:48;100990.47;;;18.00;52.18
58686;BME280;44465;53.206;-6.106;2022-11-25T10:50:15;100994.06;;;17.99;52.27
58686;BME280;44465;53.206;-6.106;2022-11-25T10:53:24;100911.91;;;17.41;52.25
58686;BME280;44465;53.206;-6.106;2022-11-25T10:56:18;100912.78;;;17.41;52.23
58686;BME280;44465;53.206;-6.106;2022-11-25T10:58:44;101014.53;;;17.98;52.45
58686;BME280;44465;53.206;-6.106;2022-11-25T11:01:24;100977.19;;;17.75;52.24
58686;BME280;44465;53.206;-6.106;2022-11-25T11:03:52;100943.50;;;17.50;52.40
58686;BME280;44465;53.206;-6.106;2022-11-25T11:06:38;100975.47;;;17.74;52.35
58686;BME280;44465;53.206;-6.106;2022-11-25T11:09:08;100994.66;;;17.82;52.56
58686;BME280;44465;53.206;-6.106;2022-11-25T11:11:53;100966.19;;;17.60;52.25
58686;BME280;44465;53.206;-6.106;2022-11-25T11:14:20;100919.91;;;17.41;52.40
58686;BME280;44465;53.206;-6.106;2022-11-25T11:16:56;101046.25;;;18.05;52.25
58686;BME280;44465;53.206;-6.106;2022-11-25T11:19:31;100976.84;;;17.60;52.41
58686;BME280;44465;53.206;-6.106;2022-11-25T11:22:16;100970.13;;;17.50;52.28
58686;BME280;44465;53.206;-6.106;2022-11-25T11:24:42;100967.59;;;17.47;52.17
58686;BME280;44465;53.206;-6.106;2022-11-25T11:27:23;101063.97;;;18.06;52.08
58686;BME280;44465;53.206;-6.106;2022-11-25T11:30:16;101069.56;;;18.00;52.08
58686;BME280;44465;53.206;-6.106;2022-11-25T11:33:00;101067.56;;;18.05;52.24
58686;BME280;44465;53.206;-6.106;2022-11-25T11:36:01;101076.38;;;18.07;52.13
58686;BME280;44465;53.206;-6.106;2022-11-25T11:38:53;101011.25;;;17.66;52.13
58686;BME280;44465;53.206;-6.106;2022-11-25T11:56:07;101113.69;;;18.07;52.42
58686;BME280;44465;53.206;-6.106;2022-11-25T11:59:20;101004.91;;;17.45;52.16
58686;BME280;44465;53.206;-6.106;2022-11-25T12:02:19;101097.31;;;17.92;52.46
58686;BME280;44465;53.206;-6.106;2022-11-25T12:05:20;101112.38;;;17.93;52.35
58686;BME280;44465;53.206;-6.106;2022-11-25T12:10:55;101126.09;;;18.08;52.24
58686;BME280;44465;53.206;-6.106;2022-11-25T12:19:20;101137.59;;;18.08;52.28
58686;BME280;44465;53.206;-6.106;2022-11-25T12:22:24;101079.91;;;17.58;52.31
58686;BME280;44465;53.206;-6.106;2022-11-25T12:27:39;101108.75;;;17.71;52.65
58686;BME280;44465;53.206;-6.106;2022-11-25T12:30:18;101105.44;;;17.64;52.58
58686;BME280;44465;53.206;-6.106;2022-11-25T12:33:22;101085.28;;;17.57;52.51
58686;BME280;44465;53.206;-6.106;2022-11-25T12:36:14;101089.69;;;17.58;52.43
58686;BME280;44465;53.206;-6.106;2022-11-25T12:46:49;101087.03;;;17.58;52.38
58686;BME280;44465;53.206;-6.106;2022-11-25T12:55:09;101101.09;;;17.61;52.29
58686;BME280;44465;53.206;-6.106;2022-11-25T13:04:02;101097.03;;;17.51;52.71
58686;BME280;44465;53.206;-6.106;2022-11-25T13:10:10;101203.31;;;18.09;52.73
58686;BME280;44465;53.206;-6.106;2022-11-25T13:13:03;101145.84;;;17.77;52.59
58686;BME280;44465;53.206;-6.106;2022-11-25T13:15:46;101136.53;;;17.63;52.59
58686;BME280;44465;53.206;-6.106;2022-11-25T13:18:19;101155.22;;;17.87;52.72
58686;BME280;44465;53.206;-6.106;2022-11-25T13:20:54;101150.25;;;17.78;52.58
58686;BME280;44465;53.206;-6.106;2022-11-25T13:23:29;101160.66;;;17.84;52.53
58686;BME280;44465;53.206;-6.106;2022-11-25T13:32:01;101207.56;;;18.15;52.43
58686;BME280;44465;53.206;-6.106;2022-11-25T13:34:34;101113.81;;;17.53;52.64
58686;BME280;44465;53.206;-6.106;2022-11-25T13:37:01;101103.16;;;17.53;52.57
58686;BME280;44465;53.206;-6.106;2022-11-25T13:39:49;101172.06;;;17.88;52.62
58686;BME280;44465;53.206;-6.106;2022-11-25T13:42:50;101198.31;;;18.00;52.40
58686;BME280;44465;53.206;-6.106;2022-11-25T13:45:36;101229.72;;;18.16;52.53
58686;BME280;44465;53.206;-6.106;2022-11-25T13:50:36;101164.66;;;17.72;52.91
58686;BME280;44465;53.206;-6.106;2022-11-25T13:53:31;101237.91;;;18.11;52.82
58686;BME280;44465;53.206;-6.106;2022-11-25T13:56:34;101173.50;;;17.73;52.57
58686;BME280;44465;53.206;-6.106;2022-11-25T14:01:38;101216.75;;;18.06;52.66
58686;BME280;44465;53.206;-6.106;2022-11-25T14:04:11;101214.38;;;17.98;52.70
58686;BME280;44465;53.206;-6.106;2022-11-25T14:07:08;101234.09;;;18.18;52.44
58686;BME280;44465;53.206;-6.106;2022-11-25T14:24:42;101258.78;;;18.23;52.91
58686;BME280;44465;53.206;-6.106;2022-11-25T14:28:09;101189.47;;;17.73;52.57
58686;BME280;44465;53.206;-6.106;2022-11-25T14:31:06;101198.28;;;17.75;52.99
58686;BME280;44465;53.206;-6.106;2022-11-25T14:33:54;101239.28;;;17.97;52.79
58686;BME280;44465;53.206;-6.106;2022-11-25T14:36:28;101181.00;;;17.61;52.65
58686;BME280;44465;53.206;-6.106;2022-11-25T14:42:02;101191.38;;;17.69;52.71
58686;BME280;44465;53.206;-6.106;2022-11-25T14:44:44;101247.34;;;17.94;52.41
58686;BME280;44465;53.206;-6.106;2022-11-25T14:47:14;101191.63;;;17.61;52.62
58686;BME280;44465;53.206;-6.106;2022-11-25T14:49:57;101214.38;;;17.72;52.83
58686;BME280;44465;53.206;-6.106;2022-11-25T14:52:32;101275.53;;;18.02;53.05
58686;BME280;44465;53.206;-6.106;2022-11-25T14:55:01;101259.97;;;17.89;53.00
58686;BME280;44465;53.206;-6.106;2022-11-25T14:57:33;101260.06;;;17.86;53.03
58686;BME280;44465;53.206;-6.106;2022-11-25T15:00:13;101264.56;;;17.84;53.07
58686;BME280;44465;53.206;-6.106;2022-11-25T15:03:03;101317.09;;;18.07;52.86
58686;BME280;44465;53.206;-6.106;2022-11-25T15:06:05;101347.50;;;18.28;53.11
58686;BME280;44465;53.206;-6.106;2022-11-25T15:08:55;101257.00;;;17.72;52.81